createdAt,value
2022-09-25T00:00:53.029Z,11.61
2022-09-25T00:03:20.761Z,11.49
2022-09-25T00:05:47.780Z,11.47
2022-09-25T00:08:16.060Z,11.45
2022-09-25T00:10:44.674Z,11.49
2022-09-25T00:13:11.406Z,11.50
2022-09-25T00:15:38.417Z,11.47
2022-09-25T00:18:05.013Z,11.40
2022-09-25T00:20:31.487Z,11.42
2022-09-25T00:22:58.108Z,11.34
2022-09-25T00:25:27.302Z,11.40
2022-09-25T00:27:54.943Z,11.33
2022-09-25T00:30:21.611Z,11.28
2022-09-25T00:32:47.990Z,11.32
2022-09-25T00:35:14.379Z,11.31
2022-09-25T00:37:40.814Z,11.32
2022-09-25T00:40:08.030Z,11.31
2022-09-25T00:42:36.331Z,11.35
2022-09-25T00:45:21.929Z,11.27
2022-09-25T00:48:01.064Z,11.30
2022-09-25T00:50:38.823Z,11.28
2022-09-25T00:53:14.856Z,11.20
2022-09-25T00:55:44.209Z,11.24
2022-09-25T00:58:14.141Z,11.29
2022-09-25T01:00:41.390Z,11.26
2022-09-25T01:03:08.821Z,11.28
2022-09-25T01:05:38.995Z,11.20
2022-09-25T01:08:08.353Z,11.19
2022-09-25T01:10:36.251Z,11.21
2022-09-25T01:13:03.905Z,11.10
2022-09-25T01:15:47.682Z,11.19
2022-09-25T01:18:42.987Z,10.62
2022-09-25T01:21:43.094Z,11.05
2022-09-25T01:24:18.969Z,11.05
2022-09-25T01:27:17.005Z,11.03
2022-09-25T01:30:01.820Z,10.98
2022-09-25T01:33:10.070Z,10.89
2022-09-25T01:35:42.490Z,10.89
2022-09-25T01:38:24.077Z,10.86
2022-09-25T01:40:58.743Z,10.83
2022-09-25T01:43:34.001Z,10.76
2022-09-25T01:46:04.182Z,11.01
2022-09-25T01:48:33.691Z,11.08
2022-09-25T01:51:05.372Z,11.04
2022-09-25T01:53:39.247Z,11.05
2022-09-25T01:56:16.115Z,11.01
2022-09-25T01:58:55.417Z,11.14
2022-09-25T02:01:27.277Z,10.98
2022-09-25T02:03:58.864Z,11.16
2022-09-25T02:06:25.859Z,11.15
2022-09-25T02:09:19.266Z,11.15
2022-09-25T02:11:50.793Z,11.15
2022-09-25T02:14:26.842Z,11.05
2022-09-25T02:16:56.487Z,11.06
2022-09-25T02:19:42.636Z,11.06
2022-09-25T02:22:20.023Z,11.10
2022-09-25T02:24:59.170Z,11.07
2022-09-25T02:27:27.516Z,11.03
2022-09-25T02:29:55.675Z,11.06
2022-09-25T02:32:28.713Z,11.01
2022-09-25T02:34:56.886Z,11.08
2022-09-25T02:37:23.906Z,11.03
2022-09-25T02:39:54.548Z,10.99
2022-09-25T02:42:48.269Z,10.99
2022-09-25T02:45:14.653Z,10.86
2022-09-25T02:48:24.594Z,10.86
2022-09-25T02:51:12.155Z,10.94
2022-09-25T02:53:43.545Z,10.94
2022-09-25T02:56:36.169Z,10.89
2022-09-25T02:59:08.842Z,10.91
2022-09-25T03:01:39.769Z,10.79
2022-09-25T03:04:07.119Z,10.91
2022-09-25T03:06:33.721Z,10.84
2022-09-25T03:09:02.053Z,10.91
2022-09-25T03:11:28.620Z,10.98
2022-09-25T03:14:03.977Z,11.02
2022-09-25T03:16:35.084Z,11.06
2022-09-25T03:19:02.705Z,11.03
2022-09-25T03:21:29.322Z,11.00
2022-09-25T03:23:56.951Z,11.03
2022-09-25T03:26:24.977Z,11.09
2022-09-25T03:28:52.562Z,11.00
2022-09-25T03:31:19.501Z,10.98
2022-09-25T03:33:46.701Z,10.89
2022-09-25T03:36:21.635Z,10.87
2022-09-25T03:38:50.540Z,10.88
2022-09-25T03:41:21.327Z,11.01
2022-09-25T03:43:51.251Z,11.07
2022-09-25T03:46:21.270Z,11.08
2022-09-25T03:48:47.976Z,11.12
2022-09-25T03:51:14.748Z,11.11
2022-09-25T03:53:41.207Z,11.15
2022-09-25T03:56:11.981Z,11.17
2022-09-25T03:58:38.783Z,11.01
2022-09-25T04:01:06.191Z,11.19
2022-09-25T04:03:34.031Z,11.19
2022-09-25T04:06:04.806Z,11.06
2022-09-25T04:08:33.007Z,11.11
2022-09-25T04:11:00.085Z,11.15
2022-09-25T04:13:31.794Z,11.08
2022-09-25T04:16:00.961Z,11.16
2022-09-25T04:18:31.656Z,10.96
2022-09-25T04:21:04.097Z,10.98
2022-09-25T04:23:31.243Z,10.97
2022-09-25T04:25:58.065Z,10.92
2022-09-25T04:28:25.598Z,10.96
2022-09-25T04:30:52.210Z,10.95
2022-09-25T04:33:37.306Z,11.00
2022-09-25T04:36:05.008Z,10.94
2022-09-25T04:38:32.450Z,10.84
2022-09-25T04:41:02.864Z,10.77
2022-09-25T04:43:30.509Z,10.74
2022-09-25T04:46:04.792Z,10.82
2022-09-25T04:48:32.257Z,10.69
2022-09-25T04:50:59.006Z,10.71
2022-09-25T04:53:27.203Z,10.75
2022-09-25T04:55:55.140Z,10.69
2022-09-25T04:58:21.927Z,10.76
2022-09-25T05:00:49.210Z,10.84
2022-09-25T05:03:15.802Z,10.65
2022-09-25T05:05:42.522Z,10.82
2022-09-25T05:08:09.659Z,10.77
2022-09-25T05:10:36.090Z,10.80
2022-09-25T05:13:04.274Z,10.77
2022-09-25T05:15:32.563Z,10.84
2022-09-25T05:18:00.557Z,10.89
2022-09-25T05:20:27.169Z,10.97
2022-09-25T05:22:57.783Z,10.97
2022-09-25T05:25:25.363Z,10.95
2022-09-25T05:27:55.795Z,11.00
2022-09-25T05:30:22.886Z,11.06
2022-09-25T05:32:50.150Z,10.98
2022-09-25T05:35:18.987Z,10.91
2022-09-25T05:37:45.877Z,11.03
2022-09-25T05:40:12.765Z,10.82
2022-09-25T05:42:39.551Z,10.97
2022-09-25T05:45:07.712Z,9.95
2022-09-25T05:47:34.187Z,10.96
2022-09-25T05:50:00.622Z,10.96
2022-09-25T05:52:26.985Z,10.76
2022-09-25T05:54:53.487Z,10.97
2022-09-25T05:57:19.881Z,10.67
2022-09-25T05:59:46.310Z,10.70
2022-09-25T06:02:14.815Z,10.78
2022-09-25T06:04:41.347Z,10.83
2022-09-25T06:07:09.930Z,10.70
2022-09-25T06:09:36.403Z,10.94
2022-09-25T06:12:03.210Z,10.99
2022-09-25T06:14:30.360Z,10.89
2022-09-25T06:16:57.719Z,11.10
2022-09-25T06:19:24.280Z,11.01
2022-09-25T06:21:50.727Z,11.14
2022-09-25T06:24:17.073Z,11.07
2022-09-25T06:26:43.501Z,11.13
2022-09-25T06:29:09.916Z,11.14
2022-09-25T06:31:37.776Z,11.20
2022-09-25T06:34:04.360Z,11.15
2022-09-25T06:36:31.418Z,11.19
2022-09-25T06:38:57.990Z,11.21
2022-09-25T06:41:24.644Z,11.22
2022-09-25T06:43:52.020Z,11.27
2022-09-25T06:46:20.553Z,11.29
2022-09-25T06:48:54.444Z,11.34
2022-09-25T06:51:22.590Z,11.34
2022-09-25T06:53:53.130Z,11.55
2022-09-25T06:56:20.287Z,11.65
2022-09-25T06:58:46.762Z,11.70
2022-09-25T07:01:13.737Z,11.65
2022-09-25T07:03:47.117Z,11.46
2022-09-25T07:06:22.163Z,11.34
2022-09-25T07:08:50.254Z,11.01
2022-09-25T07:11:21.869Z,11.01
2022-09-25T07:13:51.204Z,11.03
2022-09-25T07:16:19.950Z,11.04
2022-09-25T07:18:46.840Z,11.02
2022-09-25T07:21:18.454Z,11.07
2022-09-25T07:23:48.669Z,11.07
2022-09-25T07:26:23.593Z,10.91
2022-09-25T07:28:59.041Z,11.08
2022-09-25T07:31:28.349Z,11.00
2022-09-25T07:33:57.110Z,11.06
2022-09-25T07:36:23.549Z,11.12
2022-09-25T07:38:51.227Z,11.15
2022-09-25T07:41:19.622Z,11.09
2022-09-25T07:43:46.056Z,11.15
2022-09-25T07:46:13.117Z,11.23
2022-09-25T07:48:39.791Z,11.14
2022-09-25T07:51:10.753Z,11.30
2022-09-25T07:53:38.333Z,11.14
2022-09-25T07:56:06.850Z,11.26
2022-09-25T07:58:38.830Z,11.38
2022-09-25T08:01:07.904Z,11.40
2022-09-25T08:03:34.635Z,11.05
2022-09-25T08:06:03.989Z,11.28
2022-09-25T08:08:30.999Z,11.41
2022-09-25T08:11:02.571Z,11.40
2022-09-25T08:13:32.066Z,11.37
2022-09-25T08:15:58.629Z,11.47
2022-09-25T08:18:25.079Z,11.50
2022-09-25T08:20:52.373Z,11.61
2022-09-25T08:23:18.799Z,11.53
2022-09-25T08:25:49.238Z,11.52
2022-09-25T08:28:16.043Z,11.53
2022-09-25T08:30:43.776Z,11.57
2022-09-25T08:33:15.765Z,11.60
2022-09-25T08:35:43.370Z,11.52
2022-09-25T08:38:13.837Z,11.56
2022-09-25T08:40:54.719Z,11.65
2022-09-25T08:43:23.254Z,11.73
2022-09-25T08:46:08.975Z,11.70
2022-09-25T08:49:02.194Z,11.59
2022-09-25T08:51:31.436Z,11.57
2022-09-25T08:53:59.022Z,11.31
2022-09-25T08:56:28.603Z,11.54
2022-09-25T08:59:13.720Z,11.66
2022-09-25T09:01:47.348Z,11.70
2022-09-25T09:04:32.636Z,11.74
2022-09-25T09:07:26.381Z,11.91
2022-09-25T09:09:57.917Z,11.91
2022-09-25T09:12:44.937Z,11.92
2022-09-25T09:15:42.296Z,11.92
2022-09-25T09:18:24.042Z,11.98
2022-09-25T09:20:59.128Z,11.88
2022-09-25T09:23:33.687Z,12.01
2022-09-25T09:26:03.582Z,11.88
2022-09-25T09:28:39.201Z,12.09
2022-09-25T09:31:17.054Z,12.13
2022-09-25T09:33:49.319Z,12.32
2022-09-25T09:36:30.542Z,12.37
2022-09-25T09:39:25.341Z,12.44
2022-09-25T09:41:58.181Z,12.52
2022-09-25T09:44:43.017Z,12.42
2022-09-25T09:47:25.533Z,12.18
2022-09-25T09:49:59.168Z,11.98
2022-09-25T09:52:34.063Z,11.86
2022-09-25T09:55:20.991Z,11.79
2022-09-25T09:57:52.207Z,11.68
2022-09-25T10:00:21.205Z,11.74
2022-09-25T10:02:54.078Z,11.73
2022-09-25T10:05:26.041Z,11.73
2022-09-25T10:07:53.242Z,11.74
2022-09-25T10:10:20.251Z,11.73
2022-09-25T10:12:50.958Z,11.82
2022-09-25T10:15:38.282Z,11.72
2022-09-25T10:18:06.516Z,11.92
2022-09-25T10:20:58.081Z,12.09
2022-09-25T10:23:47.777Z,12.20
2022-09-25T10:26:37.759Z,12.38
2022-09-25T10:29:25.087Z,12.23
2022-09-25T10:32:04.111Z,12.20
2022-09-25T10:34:31.854Z,12.12
2022-09-25T10:36:58.490Z,12.05
2022-09-25T10:39:44.685Z,12.13
2022-09-25T10:42:37.349Z,12.12
2022-09-25T10:45:21.961Z,12.03
2022-09-25T10:48:09.631Z,12.07
2022-09-25T10:50:38.624Z,12.21
2022-09-25T10:53:07.343Z,12.13
2022-09-25T10:55:42.503Z,12.08
2022-09-25T10:58:20.088Z,12.02
2022-09-25T11:00:47.551Z,12.31
2022-09-25T11:03:21.609Z,12.35
2022-09-25T11:05:55.094Z,12.29
2022-09-25T11:08:25.024Z,12.41
2022-09-25T11:10:57.739Z,12.31
2022-09-25T11:13:32.030Z,12.59
2022-09-25T11:16:03.222Z,12.93
2022-09-25T11:18:36.512Z,13.30
2022-09-25T11:21:05.151Z,13.43
2022-09-25T11:23:45.720Z,13.39
2022-09-25T11:26:15.033Z,13.37
2022-09-25T11:28:49.166Z,13.30
2022-09-25T11:31:30.145Z,13.39
2022-09-25T11:34:04.792Z,13.20
2022-09-25T11:36:49.170Z,13.06
2022-09-25T11:39:43.895Z,12.84
2022-09-25T11:42:18.894Z,12.57
2022-09-25T11:44:57.241Z,12.51
2022-09-25T11:48:10.845Z,12.46
2022-09-25T11:50:52.814Z,12.57
2022-09-25T11:53:33.434Z,12.49
2022-09-25T11:56:09.090Z,12.63
2022-09-25T11:59:13.407Z,12.77
2022-09-25T12:01:49.550Z,12.95
2022-09-25T12:04:25.230Z,13.09
2022-09-25T12:06:58.725Z,13.23
2022-09-25T12:10:04.915Z,13.35
2022-09-25T12:12:49.366Z,13.41
2022-09-25T12:15:20.815Z,13.57
2022-09-25T12:18:01.627Z,13.56
2022-09-25T12:20:38.742Z,13.60
2022-09-25T12:23:47.842Z,13.68
2022-09-25T12:26:33.444Z,13.82
2022-09-25T12:29:34.947Z,14.03
2022-09-25T12:32:27.063Z,14.33
2022-09-25T12:35:10.949Z,14.54
2022-09-25T12:37:49.624Z,14.71
2022-09-25T12:40:39.957Z,14.79
2022-09-25T12:43:13.338Z,14.81
2022-09-25T12:45:51.628Z,14.78
2022-09-25T12:48:43.996Z,14.72
2022-09-25T12:51:37.903Z,14.62
2022-09-25T12:54:32.393Z,14.53
2022-09-25T12:57:09.330Z,13.78
2022-09-25T13:00:10.241Z,13.30
2022-09-25T13:02:51.261Z,12.39
2022-09-25T13:05:39.739Z,11.85
2022-09-25T13:08:23.432Z,11.42
2022-09-25T13:11:03.876Z,11.24
2022-09-25T13:13:37.486Z,10.80
2022-09-25T13:16:05.137Z,10.89
2022-09-25T13:18:33.985Z,11.04
2022-09-25T13:21:23.523Z,11.07
2022-09-25T13:23:51.727Z,10.97
2022-09-25T13:26:24.285Z,10.62
2022-09-25T13:29:02.597Z,10.78
2022-09-25T13:31:34.401Z,10.74
2022-09-25T13:34:00.801Z,10.87
2022-09-25T13:36:50.312Z,10.84
2022-09-25T13:39:41.376Z,11.01
2022-09-25T13:42:28.594Z,11.04
2022-09-25T13:45:11.228Z,10.99
2022-09-25T13:47:38.338Z,10.93
2022-09-25T13:50:10.888Z,10.93
2022-09-25T13:52:40.274Z,10.83
2022-09-25T13:55:22.058Z,10.91
2022-09-25T13:57:58.235Z,11.00
2022-09-25T14:00:55.710Z,10.65
2022-09-25T14:03:30.222Z,10.73
2022-09-25T14:05:57.443Z,10.66
2022-09-25T14:08:25.835Z,10.28
2022-09-25T14:10:55.790Z,10.44
2022-09-25T14:13:25.231Z,10.45
2022-09-25T14:15:54.980Z,10.61
2022-09-25T14:18:26.595Z,10.65
2022-09-25T14:20:58.974Z,10.47
2022-09-25T14:23:29.801Z,10.70
2022-09-25T14:26:01.350Z,10.63
2022-09-25T14:28:31.065Z,10.52
2022-09-25T14:31:21.964Z,10.52
2022-09-25T14:33:53.538Z,10.26
2022-09-25T14:36:22.931Z,10.56
2022-09-25T14:39:05.586Z,10.68
2022-09-25T14:42:06.720Z,10.52
2022-09-25T14:45:00.561Z,10.49
2022-09-25T14:47:44.973Z,10.34
2022-09-25T14:50:25.152Z,10.39
2022-09-25T14:52:57.075Z,10.47
2022-09-25T14:55:27.442Z,10.43
2022-09-25T14:57:57.119Z,10.53
2022-09-25T15:00:24.648Z,10.49
2022-09-25T15:02:56.222Z,10.67
2022-09-25T15:05:25.864Z,10.69
2022-09-25T15:07:53.402Z,10.80
2022-09-25T15:10:40.239Z,10.53
2022-09-25T15:13:20.765Z,10.87
2022-09-25T15:16:10.168Z,10.93
2022-09-25T15:18:39.635Z,10.92
2022-09-25T15:21:29.074Z,11.16
2022-09-25T15:24:11.232Z,11.23
2022-09-25T15:26:48.726Z,11.28
2022-09-25T15:29:21.752Z,11.39
2022-09-25T15:31:53.574Z,11.43
2022-09-25T15:34:26.059Z,11.52
2022-09-25T15:36:53.214Z,11.57
2022-09-25T15:39:25.242Z,11.60
2022-09-25T15:41:52.064Z,11.63
2022-09-25T15:44:26.209Z,11.68
2022-09-25T15:46:58.635Z,11.70
2022-09-25T15:49:30.661Z,11.69
2022-09-25T15:52:01.641Z,11.80
2022-09-25T15:54:37.367Z,11.76
2022-09-25T15:57:13.191Z,11.77
2022-09-25T16:00:06.262Z,11.84
2022-09-25T16:02:58.225Z,11.77
2022-09-25T16:05:32.790Z,11.45
2022-09-25T16:08:29.317Z,11.52
2022-09-25T16:11:16.603Z,11.57
2022-09-25T16:13:49.083Z,11.61
2022-09-25T16:16:29.428Z,11.67
2022-09-25T16:18:57.810Z,11.67
2022-09-25T16:21:33.693Z,11.68
2022-09-25T16:24:05.686Z,11.64
2022-09-25T16:26:39.206Z,11.69
2022-09-25T16:29:13.977Z,11.64
2022-09-25T16:31:42.531Z,11.67
2022-09-25T16:34:19.532Z,11.68
2022-09-25T16:36:48.484Z,11.62
2022-09-25T16:39:26.486Z,11.64
2022-09-25T16:41:53.237Z,11.65
2022-09-25T16:44:36.965Z,11.66
2022-09-25T16:47:14.140Z,11.61
2022-09-25T16:49:40.634Z,11.56
2022-09-25T16:52:08.443Z,11.55
2022-09-25T16:54:37.366Z,11.53
2022-09-25T16:57:04.745Z,11.47
2022-09-25T16:59:31.208Z,11.51
2022-09-25T17:02:01.318Z,11.50
2022-09-25T17:04:30.449Z,11.54
2022-09-25T17:06:58.445Z,11.24
2022-09-25T17:09:28.250Z,11.41
2022-09-25T17:12:05.037Z,11.40
2022-09-25T17:14:31.633Z,11.35
2022-09-25T17:16:58.900Z,11.37
2022-09-25T17:19:25.575Z,11.39
2022-09-25T17:21:53.589Z,11.50
2022-09-25T17:24:23.696Z,11.68
2022-09-25T17:26:51.787Z,11.78
2022-09-25T17:29:19.198Z,11.71
2022-09-25T17:31:45.670Z,11.63
2022-09-25T17:34:24.318Z,11.54
2022-09-25T17:36:51.576Z,11.45
2022-09-25T17:39:18.008Z,11.46
2022-09-25T17:41:45.093Z,11.37
2022-09-25T17:44:16.694Z,11.09
2022-09-25T17:46:43.720Z,11.26
2022-09-25T17:49:11.291Z,11.22
2022-09-25T17:51:38.249Z,11.16
2022-09-25T17:54:05.903Z,11.14
2022-09-25T17:56:37.905Z,11.10
2022-09-25T17:59:05.472Z,11.07
2022-09-25T18:01:38.384Z,11.04
2022-09-25T18:04:19.978Z,10.06
2022-09-25T18:06:47.017Z,11.06
2022-09-25T18:09:13.617Z,11.01
2022-09-25T18:11:43.533Z,10.37
2022-09-25T18:14:12.217Z,11.03
2022-09-25T18:16:41.358Z,11.02
2022-09-25T18:19:33.334Z,11.01
2022-09-25T18:22:18.208Z,10.95
2022-09-25T18:24:45.963Z,10.96
2022-09-25T18:27:13.346Z,10.85
2022-09-25T18:29:40.349Z,10.93
2022-09-25T18:32:08.025Z,10.94
2022-09-25T18:34:34.452Z,10.95
2022-09-25T18:37:00.883Z,10.91
2022-09-25T18:39:27.342Z,10.78
2022-09-25T18:41:53.778Z,10.74
2022-09-25T18:44:23.324Z,10.57
2022-09-25T18:46:51.175Z,10.31
2022-09-25T18:49:19.168Z,10.41
2022-09-25T18:51:45.821Z,10.39
2022-09-25T18:54:14.330Z,10.21
2022-09-25T18:56:41.687Z,10.10
2022-09-25T18:59:08.311Z,10.08
2022-09-25T19:01:36.038Z,10.03
2022-09-25T19:04:03.410Z,9.92
2022-09-25T19:06:30.089Z,9.94
2022-09-25T19:08:57.757Z,9.86
2022-09-25T19:11:26.054Z,9.88
2022-09-25T19:13:52.879Z,9.92
2022-09-25T19:16:20.608Z,9.99
2022-09-25T19:18:47.424Z,10.02
2022-09-25T19:21:15.830Z,10.17
2022-09-25T19:23:43.559Z,10.16
2022-09-25T19:26:14.883Z,10.17
2022-09-25T19:28:41.811Z,10.19
2022-09-25T19:31:13.974Z,10.05
2022-09-25T19:33:40.462Z,10.23
2022-09-25T19:36:10.725Z,10.22
2022-09-25T19:38:38.597Z,10.23
2022-09-25T19:41:12.244Z,10.25
2022-09-25T19:43:39.792Z,10.23
2022-09-25T19:46:06.737Z,10.22
2022-09-25T19:48:33.543Z,10.28
2022-09-25T19:51:03.551Z,9.67
2022-09-25T19:53:30.061Z,10.18
2022-09-25T19:55:56.433Z,10.27
2022-09-25T19:58:23.666Z,10.29
2022-09-25T20:00:51.202Z,10.31
2022-09-25T20:03:18.198Z,10.07
2022-09-25T20:05:44.767Z,10.23
2022-09-25T20:08:11.474Z,10.13
2022-09-25T20:10:38.293Z,10.12
2022-09-25T20:13:06.076Z,10.02
2022-09-25T20:15:33.839Z,10.10
2022-09-25T20:18:00.532Z,10.13
2022-09-25T20:20:29.223Z,10.17
2022-09-25T20:22:57.531Z,10.12
2022-09-25T20:25:24.999Z,10.14
2022-09-25T20:27:52.233Z,10.07
2022-09-25T20:30:19.483Z,9.98
2022-09-25T20:32:47.725Z,9.88
2022-09-25T20:35:14.280Z,9.94
2022-09-25T20:37:40.653Z,9.78
2022-09-25T20:40:07.430Z,9.75
2022-09-25T20:42:33.934Z,9.73
2022-09-25T20:45:00.429Z,9.72
2022-09-25T20:47:33.351Z,9.78
2022-09-25T20:50:00.490Z,9.67
2022-09-25T20:52:27.738Z,9.57
2022-09-25T20:54:54.184Z,9.55
2022-09-25T20:57:20.600Z,9.74
2022-09-25T20:59:53.031Z,9.70
2022-09-25T21:02:19.522Z,9.74
2022-09-25T21:04:46.101Z,9.75
2022-09-25T21:07:16.735Z,9.77
2022-09-25T21:09:44.001Z,9.61
2022-09-25T21:12:10.427Z,9.76
2022-09-25T21:14:37.149Z,9.72
2022-09-25T21:17:03.857Z,9.75
2022-09-25T21:19:30.481Z,9.71
2022-09-25T21:21:56.871Z,9.70
2022-09-25T21:24:23.298Z,9.70
2022-09-25T21:26:50.494Z,9.65
2022-09-25T21:29:18.724Z,9.54
2022-09-25T21:31:49.678Z,9.65
2022-09-25T21:34:16.882Z,9.64
2022-09-25T21:36:45.169Z,9.64
2022-09-25T21:39:12.130Z,9.64
2022-09-25T21:41:39.188Z,9.43
2022-09-25T21:44:11.505Z,9.57
2022-09-25T21:46:37.920Z,9.48
2022-09-25T21:49:06.861Z,9.52
2022-09-25T21:51:38.607Z,9.49
2022-09-25T21:54:08.534Z,8.49
2022-09-25T21:56:35.354Z,9.34
2022-09-25T21:59:08.301Z,9.34
2022-09-25T22:01:37.263Z,9.21
2022-09-25T22:04:05.018Z,9.09
2022-09-25T22:06:37.090Z,9.02
2022-09-25T22:09:09.881Z,8.98
2022-09-25T22:11:37.549Z,8.86
2022-09-25T22:14:05.795Z,8.67
2022-09-25T22:16:35.020Z,8.66
2022-09-25T22:19:13.921Z,8.54
2022-09-25T22:21:42.585Z,8.41
2022-09-25T22:24:09.744Z,8.57
2022-09-25T22:26:38.332Z,8.57
2022-09-25T22:29:05.804Z,8.73
2022-09-25T22:31:33.825Z,8.71
2022-09-25T22:34:08.655Z,8.77
2022-09-25T22:36:36.166Z,8.82
2022-09-25T22:39:04.714Z,8.79
2022-09-25T22:41:31.977Z,8.26
2022-09-25T22:44:00.639Z,8.80
2022-09-25T22:46:27.585Z,8.77
2022-09-25T22:48:54.017Z,8.80
2022-09-25T22:51:23.003Z,8.69
2022-09-25T22:53:50.287Z,8.77
2022-09-25T22:56:21.046Z,8.69
2022-09-25T22:58:50.124Z,8.63
2022-09-25T23:01:50.728Z,8.49
2022-09-25T23:04:20.610Z,8.31
2022-09-25T23:06:48.781Z,8.25
2022-09-25T23:09:18.413Z,8.30
2022-09-25T23:11:45.655Z,8.22
2022-09-25T23:14:16.857Z,8.17
2022-09-25T23:16:44.793Z,8.29
2022-09-25T23:19:11.527Z,8.30
2022-09-25T23:21:37.935Z,8.34
2022-09-25T23:24:08.046Z,8.28
2022-09-25T23:26:34.523Z,8.19
2022-09-25T23:29:02.050Z,8.24
2022-09-25T23:31:30.474Z,8.02
2022-09-25T23:33:59.288Z,7.90
2022-09-25T23:36:26.655Z,7.72
2022-09-25T23:38:54.807Z,7.80
2022-09-25T23:41:32.674Z,7.66
2022-09-25T23:44:00.988Z,7.58
2022-09-25T23:46:31.131Z,7.64
2022-09-25T23:48:58.099Z,7.68
2022-09-25T23:51:26.148Z,7.78
2022-09-25T23:53:54.730Z,7.43
2022-09-25T23:56:28.867Z,7.47
2022-09-25T23:58:57.438Z,7.63
